sensor_id;sensor_type;location;lat;lon;timestamp;pressure;altitude;pressure_sealevel;temperature;humidity
51439;BME280;38816;51.142;-0.974;2023-02-13T00:01:52;102045.81;;;5.78;100.00
51439;BME280;38816;51.142;-0.974;2023-02-13T00:04:17;102039.53;;;5.73;100.00
51439;BME280;38816;51.142;-0.974;2023-02-13T00:06:43;102046.69;;;5.79;100.00
51439;BME280;38816;51.142;-0.974;2023-02-13T00:09:08;102031.88;;;5.73;100.00
51439;BME280;38816;51.142;-0.974;2023-02-13T00:11:35;102025.09;;;5.74;100.00
51439;BME280;38816;51.142;-0.974;2023-02-13T00:14:01;102025.78;;;5.71;100.00
51439;BME280;38816;51.142;-0.974;2023-02-13T00:16:26;102015.56;;;5.71;100.00
51439;BME280;38816;51.142;-0.974;2023-02-13T00:18:52;102005.94;;;5.67;100.00
51439;BME280;38816;51.142;-0.974;2023-02-13T00:21:17;102017.94;;;5.68;100.00
51439;BME280;38816;51.142;-0.974;2023-02-13T00:23:42;102013.53;;;5.66;100.00
51439;BME280;38816;51.142;-0.974;2023-02-13T00:26:10;102014.41;;;5.66;100.00
51439;BME280;38816;51.142;-0.974;2023-02-13T00:28:36;102011.66;;;5.63;100.00
51439;BME280;38816;51.142;-0.974;2023-02-13T00:31:06;102002.22;;;5.62;100.00
51439;BME280;38816;51.142;-0.974;2023-02-13T00:33:32;102002.06;;;5.59;100.00
51439;BME280;38816;51.142;-0.974;2023-02-13T00:36:05;102006.75;;;5.66;100.00
51439;BME280;38816;51.142;-0.974;2023-02-13T00:38:31;102012.56;;;5.64;100.00
51439;BME280;38816;51.142;-0.974;2023-02-13T00:40:56;102012.25;;;5.59;100.00
51439;BME280;38816;51.142;-0.974;2023-02-13T00:43:21;102007.81;;;5.56;100.00
51439;BME280;38816;51.142;-0.974;2023-02-13T00:45:47;102006.94;;;5.56;100.00
51439;BME280;38816;51.142;-0.974;2023-02-13T00:48:12;101991.44;;;5.53;100.00
51439;BME280;38816;51.142;-0.974;2023-02-13T00:50:38;101997.81;;;5.59;100.00
51439;BME280;38816;51.142;-0.974;2023-02-13T00:53:03;101996.06;;;5.58;100.00
51439;BME280;38816;51.142;-0.974;2023-02-13T00:55:28;102002.94;;;5.59;100.00
51439;BME280;38816;51.142;-0.974;2023-02-13T00:57:54;101981.22;;;5.53;100.00
51439;BME280;38816;51.142;-0.974;2023-02-13T01:00:19;101989.09;;;5.56;100.00
51439;BME280;38816;51.142;-0.974;2023-02-13T01:02:45;101984.28;;;5.47;100.00
51439;BME280;38816;51.142;-0.974;2023-02-13T01:05:10;101976.63;;;5.47;100.00
51439;BME280;38816;51.142;-0.974;2023-02-13T01:07:36;101989.47;;;5.49;100.00
51439;BME280;38816;51.142;-0.974;2023-02-13T01:10:01;101984.34;;;5.49;100.00
51439;BME280;38816;51.142;-0.974;2023-02-13T01:12:26;101985.34;;;5.51;100.00
51439;BME280;38816;51.142;-0.974;2023-02-13T01:14:52;101981.63;;;5.46;100.00
51439;BME280;38816;51.142;-0.974;2023-02-13T01:17:17;101982.00;;;5.39;100.00
51439;BME280;38816;51.142;-0.974;2023-02-13T01:19:43;102002.03;;;5.46;100.00
51439;BME280;38816;51.142;-0.974;2023-02-13T01:22:08;102001.25;;;5.47;100.00
51439;BME280;38816;51.142;-0.974;2023-02-13T01:24:34;102002.13;;;5.47;100.00
51439;BME280;38816;51.142;-0.974;2023-02-13T01:26:59;102004.59;;;5.46;100.00
51439;BME280;38816;51.142;-0.974;2023-02-13T01:29:26;102008.09;;;5.48;100.00
51439;BME280;38816;51.142;-0.974;2023-02-13T01:31:52;101980.91;;;5.35;100.00
51439;BME280;38816;51.142;-0.974;2023-02-13T01:34:17;102003.50;;;5.42;100.00
51439;BME280;38816;51.142;-0.974;2023-02-13T01:36:43;102007.00;;;5.44;100.00
51439;BME280;38816;51.142;-0.974;2023-02-13T01:39:10;102013.00;;;5.45;100.00
51439;BME280;38816;51.142;-0.974;2023-02-13T01:41:36;102010.44;;;5.45;100.00
51439;BME280;38816;51.142;-0.974;2023-02-13T01:44:02;102008.03;;;5.46;100.00
51439;BME280;38816;51.142;-0.974;2023-02-13T01:46:34;101998.47;;;5.44;100.00
51439;BME280;38816;51.142;-0.974;2023-02-13T01:49:22;102010.56;;;5.46;100.00
51439;BME280;38816;51.142;-0.974;2023-02-13T01:51:52;102004.28;;;5.41;100.00
51439;BME280;38816;51.142;-0.974;2023-02-13T01:54:22;101996.22;;;5.35;100.00
51439;BME280;38816;51.142;-0.974;2023-02-13T01:56:58;101999.75;;;5.37;100.00
51439;BME280;38816;51.142;-0.974;2023-02-13T01:59:29;102002.19;;;5.36;100.00
51439;BME280;38816;51.142;-0.974;2023-02-13T02:01:57;102004.00;;;5.37;100.00
51439;BME280;38816;51.142;-0.974;2023-02-13T02:04:26;101996.69;;;5.29;100.00
51439;BME280;38816;51.142;-0.974;2023-02-13T02:07:01;102007.91;;;5.31;100.00
51439;BME280;38816;51.142;-0.974;2023-02-13T02:09:32;102001.41;;;5.23;100.00
51439;BME280;38816;51.142;-0.974;2023-02-13T02:12:03;102003.75;;;5.20;100.00
51439;BME280;38816;51.142;-0.974;2023-02-13T02:14:30;102002.28;;;5.24;100.00
51439;BME280;38816;51.142;-0.974;2023-02-13T02:16:56;101996.69;;;5.16;100.00
51439;BME280;38816;51.142;-0.974;2023-02-13T02:33:36;101996.75;;;5.18;100.00
51439;BME280;38816;51.142;-0.974;2023-02-13T02:36:30;101964.91;;;5.11;100.00
51439;BME280;38816;51.142;-0.974;2023-02-13T02:39:09;101971.75;;;5.12;100.00
51439;BME280;38816;51.142;-0.974;2023-02-13T02:41:52;101983.13;;;5.17;100.00
51439;BME280;38816;51.142;-0.974;2023-02-13T02:46:55;101980.59;;;5.17;100.00
51439;BME280;38816;51.142;-0.974;2023-02-13T02:49:44;101962.25;;;5.10;100.00
51439;BME280;38816;51.142;-0.974;2023-02-13T02:52:50;101968.63;;;5.16;100.00
51439;BME280;38816;51.142;-0.974;2023-02-13T03:00:53;101966.09;;;5.16;100.00
51439;BME280;38816;51.142;-0.974;2023-02-13T03:03:38;101971.97;;;5.15;100.00
51439;BME280;38816;51.142;-0.974;2023-02-13T03:06:43;101965.88;;;5.13;100.00
51439;BME280;38816;51.142;-0.974;2023-02-13T03:09:14;101974.53;;;5.15;100.00
51439;BME280;38816;51.142;-0.974;2023-02-13T03:12:00;101978.84;;;5.16;100.00
51439;BME280;38816;51.142;-0.974;2023-02-13T03:14:44;101964.13;;;5.12;100.00
51439;BME280;38816;51.142;-0.974;2023-02-13T03:17:12;101972.63;;;5.13;100.00
51439;BME280;38816;51.142;-0.974;2023-02-13T03:20:35;101974.59;;;5.17;100.00
51439;BME280;38816;51.142;-0.974;2023-02-13T03:28:53;101959.50;;;5.06;100.00
51439;BME280;38816;51.142;-0.974;2023-02-13T03:31:58;101968.41;;;5.13;100.00
51439;BME280;38816;51.142;-0.974;2023-02-13T03:34:34;101960.91;;;5.15;100.00
51439;BME280;38816;51.142;-0.974;2023-02-13T03:37:34;101952.72;;;5.07;100.00
51439;BME280;38816;51.142;-0.974;2023-02-13T03:43:17;101966.47;;;5.09;100.00
51439;BME280;38816;51.142;-0.974;2023-02-13T03:45:45;101960.38;;;5.07;100.00
51439;BME280;38816;51.142;-0.974;2023-02-13T03:48:25;101959.28;;;5.03;100.00
51439;BME280;38816;51.142;-0.974;2023-02-13T03:51:15;101963.72;;;5.06;100.00
51439;BME280;38816;51.142;-0.974;2023-02-13T03:53:45;101956.75;;;5.03;100.00
51439;BME280;38816;51.142;-0.974;2023-02-13T03:56:15;101963.63;;;5.04;100.00
51439;BME280;38816;51.142;-0.974;2023-02-13T03:59:03;101953.81;;;4.97;100.00
51439;BME280;38816;51.142;-0.974;2023-02-13T04:01:45;101959.19;;;5.02;100.00
51439;BME280;38816;51.142;-0.974;2023-02-13T04:04:30;101960.66;;;4.98;100.00
51439;BME280;38816;51.142;-0.974;2023-02-13T04:07:02;101951.72;;;4.92;100.00
51439;BME280;38816;51.142;-0.974;2023-02-13T04:09:30;101932.72;;;4.87;100.00
51439;BME280;38816;51.142;-0.974;2023-02-13T04:12:07;101947.81;;;4.97;100.00
51439;BME280;38816;51.142;-0.974;2023-02-13T04:14:45;101946.81;;;4.95;100.00
51439;BME280;38816;51.142;-0.974;2023-02-13T04:17:26;101944.97;;;4.92;100.00
51439;BME280;38816;51.142;-0.974;2023-02-13T04:19:55;101929.16;;;4.85;100.00
51439;BME280;38816;51.142;-0.974;2023-02-13T04:22:20;101945.31;;;4.85;100.00
51439;BME280;38816;51.142;-0.974;2023-02-13T04:24:46;101936.72;;;4.83;100.00
51439;BME280;38816;51.142;-0.974;2023-02-13T04:27:15;101937.59;;;4.83;100.00
51439;BME280;38816;51.142;-0.974;2023-02-13T04:29:41;101923.44;;;4.75;100.00
51439;BME280;38816;51.142;-0.974;2023-02-13T04:32:09;101929.34;;;4.74;100.00
51439;BME280;38816;51.142;-0.974;2023-02-13T04:34:35;101924.91;;;4.72;100.00
51439;BME280;38816;51.142;-0.974;2023-02-13T04:37:00;101927.56;;;4.73;100.00
51439;BME280;38816;51.142;-0.974;2023-02-13T04:39:26;101932.69;;;4.73;100.00
51439;BME280;38816;51.142;-0.974;2023-02-13T04:41:51;101938.84;;;4.77;100.00
51439;BME280;38816;51.142;-0.974;2023-02-13T04:44:16;101923.94;;;4.70;100.00
51439;BME280;38816;51.142;-0.974;2023-02-13T04:46:42;101931.88;;;4.74;100.00
51439;BME280;38816;51.142;-0.974;2023-02-13T04:49:09;101930.56;;;4.68;100.00
51439;BME280;38816;51.142;-0.974;2023-02-13T04:51:34;101929.59;;;4.66;100.00
51439;BME280;38816;51.142;-0.974;2023-02-13T04:54:00;101945.50;;;4.75;100.00
51439;BME280;38816;51.142;-0.974;2023-02-13T04:56:25;101946.28;;;4.74;100.00
51439;BME280;38816;51.142;-0.974;2023-02-13T04:58:50;101945.19;;;4.70;100.00
51439;BME280;38816;51.142;-0.974;2023-02-13T05:04:06;101948.53;;;4.69;100.00
51439;BME280;38816;51.142;-0.974;2023-02-13T05:06:31;101939.22;;;4.70;100.00
51439;BME280;38816;51.142;-0.974;2023-02-13T05:08:56;101961.66;;;4.75;100.00
51439;BME280;38816;51.142;-0.974;2023-02-13T05:11:22;101951.38;;;4.74;100.00
51439;BME280;38816;51.142;-0.974;2023-02-13T05:13:47;101951.25;;;4.72;100.00
51439;BME280;38816;51.142;-0.974;2023-02-13T05:16:12;101925.16;;;4.63;100.00
51439;BME280;38816;51.142;-0.974;2023-02-13T05:18:38;101936.56;;;4.68;100.00
51439;BME280;38816;51.142;-0.974;2023-02-13T05:21:03;101940.59;;;4.65;100.00
51439;BME280;38816;51.142;-0.974;2023-02-13T05:23:47;101941.94;;;4.60;100.00
51439;BME280;38816;51.142;-0.974;2023-02-13T05:26:13;101926.53;;;4.58;100.00
51439;BME280;38816;51.142;-0.974;2023-02-13T05:28:38;101941.25;;;4.62;100.00
51439;BME280;38816;51.142;-0.974;2023-02-13T05:31:22;101933.28;;;4.57;100.00
51439;BME280;38816;51.142;-0.974;2023-02-13T05:33:48;101929.06;;;4.58;100.00
51439;BME280;38816;51.142;-0.974;2023-02-13T05:36:13;101928.91;;;4.55;100.00
51439;BME280;38816;51.142;-0.974;2023-02-13T05:38:38;101928.78;;;4.53;100.00
51439;BME280;38816;51.142;-0.974;2023-02-13T05:41:05;101932.19;;;4.54;100.00
51439;BME280;38816;51.142;-0.974;2023-02-13T05:43:31;101922.25;;;4.45;100.00
51439;BME280;38816;51.142;-0.974;2023-02-13T05:46:07;101932.88;;;4.51;100.00
51439;BME280;38816;51.142;-0.974;2023-02-13T05:48:33;101924.81;;;4.45;100.00
51439;BME280;38816;51.142;-0.974;2023-02-13T05:50:58;101927.50;;;4.47;100.00
51439;BME280;38816;51.142;-0.974;2023-02-13T05:53:24;101921.59;;;4.48;100.00
51439;BME280;38816;51.142;-0.974;2023-02-13T05:55:49;101930.34;;;4.51;100.00
51439;BME280;38816;51.142;-0.974;2023-02-13T05:58:19;101920.72;;;4.47;100.00
51439;BME280;38816;51.142;-0.974;2023-02-13T06:00:44;101939.53;;;4.49;100.00
51439;BME280;38816;51.142;-0.974;2023-02-13T06:03:10;101935.53;;;4.53;100.00
51439;BME280;38816;51.142;-0.974;2023-02-13T06:05:35;101923.38;;;4.49;100.00
51439;BME280;38816;51.142;-0.974;2023-02-13T06:08:01;101927.00;;;4.52;100.00
51439;BME280;38816;51.142;-0.974;2023-02-13T06:10:26;101930.34;;;4.51;100.00
51439;BME280;38816;51.142;-0.974;2023-02-13T06:12:51;101924.94;;;4.47;100.00
51439;BME280;38816;51.142;-0.974;2023-02-13T06:15:17;101927.56;;;4.48;100.00
51439;BME280;38816;51.142;-0.974;2023-02-13T06:17:42;101932.31;;;4.55;100.00
51439;BME280;38816;51.142;-0.974;2023-02-13T06:20:08;101916.72;;;4.51;100.00
51439;BME280;38816;51.142;-0.974;2023-02-13T06:22:34;101923.69;;;4.53;100.00
51439;BME280;38816;51.142;-0.974;2023-02-13T06:24:59;101916.41;;;4.46;100.00
51439;BME280;38816;51.142;-0.974;2023-02-13T06:27:24;101911.19;;;4.45;100.00
51439;BME280;38816;51.142;-0.974;2023-02-13T06:29:50;101914.53;;;4.44;100.00
51439;BME280;38816;51.142;-0.974;2023-02-13T06:32:15;101905.94;;;4.42;100.00
51439;BME280;38816;51.142;-0.974;2023-02-13T06:34:40;101905.94;;;4.42;100.00
51439;BME280;38816;51.142;-0.974;2023-02-13T06:37:06;101912.88;;;4.44;100.00
51439;BME280;38816;51.142;-0.974;2023-02-13T06:39:31;101906.09;;;4.45;100.00
51439;BME280;38816;51.142;-0.974;2023-02-13T06:41:57;101905.66;;;4.50;100.00
51439;BME280;38816;51.142;-0.974;2023-02-13T06:44:22;101917.59;;;4.51;100.00
51439;BME280;38816;51.142;-0.974;2023-02-13T06:46:47;101917.69;;;4.53;100.00
51439;BME280;38816;51.142;-0.974;2023-02-13T06:49:13;101905.13;;;4.43;100.00
51439;BME280;38816;51.142;-0.974;2023-02-13T06:51:38;101917.69;;;4.53;100.00
51439;BME280;38816;51.142;-0.974;2023-02-13T06:54:03;101921.03;;;4.52;100.00
51439;BME280;38816;51.142;-0.974;2023-02-13T06:56:29;101919.84;;;4.47;100.00
51439;BME280;38816;51.142;-0.974;2023-02-13T06:58:54;101919.72;;;4.45;100.00
51439;BME280;38816;51.142;-0.974;2023-02-13T07:01:20;101933.75;;;4.52;100.00
51439;BME280;38816;51.142;-0.974;2023-02-13T07:03:45;101916.41;;;4.46;100.00
51439;BME280;38816;51.142;-0.974;2023-02-13T07:06:21;101925.44;;;4.54;100.00
51439;BME280;38816;51.142;-0.974;2023-02-13T07:08:47;101928.69;;;4.52;100.00
51439;BME280;38816;51.142;-0.974;2023-02-13T07:11:19;101920.94;;;4.50;100.00
51439;BME280;38816;51.142;-0.974;2023-02-13T07:13:45;101926.91;;;4.51;100.00
51439;BME280;38816;51.142;-0.974;2023-02-13T07:16:11;101934.75;;;4.54;100.00
51439;BME280;38816;51.142;-0.974;2023-02-13T07:18:36;101940.84;;;4.56;100.00
51439;BME280;38816;51.142;-0.974;2023-02-13T07:21:02;101949.13;;;4.53;100.00
51439;BME280;38816;51.142;-0.974;2023-02-13T07:23:27;101939.84;;;4.54;100.00
51439;BME280;38816;51.142;-0.974;2023-02-13T07:25:52;101927.16;;;4.42;100.00
51439;BME280;38816;51.142;-0.974;2023-02-13T07:28:18;101938.47;;;4.46;100.00
51439;BME280;38816;51.142;-0.974;2023-02-13T07:30:43;101947.28;;;4.51;100.00
51439;BME280;38816;51.142;-0.974;2023-02-13T07:33:09;101939.53;;;4.49;100.00
51439;BME280;38816;51.142;-0.974;2023-02-13T07:35:34;101944.63;;;4.49;100.00
51439;BME280;38816;51.142;-0.974;2023-02-13T07:38:02;101944.75;;;4.51;100.00
51439;BME280;38816;51.142;-0.974;2023-02-13T07:40:27;101934.91;;;4.44;100.00
51439;BME280;38816;51.142;-0.974;2023-02-13T07:42:53;101942.19;;;4.51;100.00
51439;BME280;38816;51.142;-0.974;2023-02-13T07:45:19;101931.69;;;4.46;100.00
51439;BME280;38816;51.142;-0.974;2023-02-13T07:47:44;101937.09;;;4.51;100.00
51439;BME280;38816;51.142;-0.974;2023-02-13T07:50:10;101942.19;;;4.51;100.00
51439;BME280;38816;51.142;-0.974;2023-02-13T07:52:35;101933.56;;;4.49;100.00
51439;BME280;38816;51.142;-0.974;2023-02-13T07:55:04;101951.81;;;4.55;100.00
51439;BME280;38816;51.142;-0.974;2023-02-13T07:57:30;101943.94;;;4.52;100.00
51439;BME280;38816;51.142;-0.974;2023-02-13T07:59:56;101952.78;;;4.57;100.00
51439;BME280;38816;51.142;-0.974;2023-02-13T08:02:21;101949.94;;;4.52;100.00
51439;BME280;38816;51.142;-0.974;2023-02-13T08:04:47;101942.84;;;4.48;100.00
51439;BME280;38816;51.142;-0.974;2023-02-13T08:07:13;101952.78;;;4.57;100.00
51439;BME280;38816;51.142;-0.974;2023-02-13T08:09:39;101949.28;;;4.55;100.00
51439;BME280;38816;51.142;-0.974;2023-02-13T08:12:23;101947.69;;;4.57;100.00
51439;BME280;38816;51.142;-0.974;2023-02-13T08:14:49;101932.88;;;4.51;100.00
51439;BME280;38816;51.142;-0.974;2023-02-13T08:17:14;101942.91;;;4.62;100.00
51439;BME280;38816;51.142;-0.974;2023-02-13T08:19:39;101926.66;;;4.60;100.00
51439;BME280;38816;51.142;-0.974;2023-02-13T08:22:05;101922.63;;;4.63;100.00
51439;BME280;38816;51.142;-0.974;2023-02-13T08:24:31;101924.16;;;4.73;100.00
51439;BME280;38816;51.142;-0.974;2023-02-13T08:26:56;101933.66;;;4.75;100.00
51439;BME280;38816;51.142;-0.974;2023-02-13T08:29:22;101924.03;;;4.71;100.00
51439;BME280;38816;51.142;-0.974;2023-02-13T08:31:47;101932.84;;;4.76;100.00
51439;BME280;38816;51.142;-0.974;2023-02-13T08:34:12;101916.38;;;4.71;100.00
51439;BME280;38816;51.142;-0.974;2023-02-13T08:36:38;101917.38;;;4.73;100.00
51439;BME280;38816;51.142;-0.974;2023-02-13T08:39:03;101931.50;;;4.81;100.00
51439;BME280;38816;51.142;-0.974;2023-02-13T08:41:29;101925.44;;;4.79;100.00
51439;BME280;38816;51.142;-0.974;2023-02-13T08:43:54;101943.09;;;4.90;100.00
51439;BME280;38816;51.142;-0.974;2023-02-13T08:46:20;101925.81;;;4.86;100.00
51439;BME280;38816;51.142;-0.974;2023-02-13T08:48:46;101919.19;;;4.88;100.00
51439;BME280;38816;51.142;-0.974;2023-02-13T08:51:12;101917.44;;;4.87;100.00
51439;BME280;38816;51.142;-0.974;2023-02-13T08:53:39;101937.13;;;5.02;100.00
51439;BME280;38816;51.142;-0.974;2023-02-13T08:56:05;101931.06;;;5.00;100.00
51439;BME280;38816;51.142;-0.974;2023-02-13T08:58:31;101924.31;;;5.01;100.00
51439;BME280;38816;51.142;-0.974;2023-02-13T09:00:56;101936.06;;;5.12;100.00
51439;BME280;38816;51.142;-0.974;2023-02-13T09:03:22;101922.38;;;5.10;100.00
51439;BME280;38816;51.142;-0.974;2023-02-13T09:05:47;101915.69;;;5.12;100.00
51439;BME280;38816;51.142;-0.974;2023-02-13T09:08:13;101926.69;;;5.24;100.00
51439;BME280;38816;51.142;-0.974;2023-02-13T09:10:39;101929.53;;;5.29;100.00
51439;BME280;38816;51.142;-0.974;2023-02-13T09:13:05;101919.53;;;5.32;100.00
51439;BME280;38816;51.142;-0.974;2023-02-13T09:15:32;101935.44;;;5.41;100.00
51439;BME280;38816;51.142;-0.974;2023-02-13T09:17:58;101931.28;;;5.43;100.00
51439;BME280;38816;51.142;-0.974;2023-02-13T09:20:23;101937.56;;;5.48;100.00
51439;BME280;38816;51.142;-0.974;2023-02-13T09:22:49;101939.75;;;5.55;100.00
51439;BME280;38816;51.142;-0.974;2023-02-13T09:25:14;101930.03;;;5.50;100.00
51439;BME280;38816;51.142;-0.974;2023-02-13T09:27:40;101935.81;;;5.61;100.00
51439;BME280;38816;51.142;-0.974;2023-02-13T09:30:07;101939.53;;;5.66;100.00
51439;BME280;38816;51.142;-0.974;2023-02-13T09:32:33;101946.69;;;5.71;100.00
51439;BME280;38816;51.142;-0.974;2023-02-13T09:34:58;101939.81;;;5.70;100.00
51439;BME280;38816;51.142;-0.974;2023-02-13T09:37:24;101933.34;;;5.62;100.00
51439;BME280;38816;51.142;-0.974;2023-02-13T09:39:51;101927.28;;;5.60;100.00
51439;BME280;38816;51.142;-0.974;2023-02-13T09:42:26;101937.19;;;5.69;100.00
51439;BME280;38816;51.142;-0.974;2023-02-13T09:44:56;101940.03;;;5.73;100.00
51439;BME280;38816;51.142;-0.974;2023-02-13T09:49:55;101928.44;;;5.78;100.00
51439;BME280;38816;51.142;-0.974;2023-02-13T09:52:25;101943.16;;;5.82;100.00
51439;BME280;38816;51.142;-0.974;2023-02-13T09:54:52;101947.47;;;5.83;100.00
51439;BME280;38816;51.142;-0.974;2023-02-13T09:57:42;101946.88;;;5.88;100.00
51439;BME280;38816;51.142;-0.974;2023-02-13T10:00:34;101930.75;;;5.89;100.00
51439;BME280;38816;51.142;-0.974;2023-02-13T10:03:23;101941.19;;;6.05;100.00
51439;BME280;38816;51.142;-0.974;2023-02-13T10:16:52;101938.31;;;6.42;100.00
51439;BME280;38816;51.142;-0.974;2023-02-13T10:19:33;101931.72;;;6.45;100.00
51439;BME280;38816;51.142;-0.974;2023-02-13T10:22:12;101931.13;;;6.49;100.00
51439;BME280;38816;51.142;-0.974;2023-02-13T10:27:21;101931.75;;;6.60;100.00
51439;BME280;38816;51.142;-0.974;2023-02-13T10:30:00;101927.63;;;6.62;100.00
51439;BME280;38816;51.142;-0.974;2023-02-13T10:32:38;101921.28;;;6.70;100.00
51439;BME280;38816;51.142;-0.974;2023-02-13T10:35:28;101927.13;;;6.82;100.00
51439;BME280;38816;51.142;-0.974;2023-02-13T10:37:56;101921.03;;;6.80;100.00
51439;BME280;38816;51.142;-0.974;2023-02-13T10:40:30;101909.41;;;6.85;100.00
51439;BME280;38816;51.142;-0.974;2023-02-13T10:43:05;101919.44;;;6.97;100.00
51439;BME280;38816;51.142;-0.974;2023-02-13T10:48:32;101916.09;;;7.13;100.00
51439;BME280;38816;51.142;-0.974;2023-02-13T10:51:19;101914.06;;;7.22;100.00
51439;BME280;38816;51.142;-0.974;2023-02-13T10:56:56;101918.19;;;7.50;100.00
51439;BME280;38816;51.142;-0.974;2023-02-13T11:02:27;101921.31;;;7.75;100.00
51439;BME280;38816;51.142;-0.974;2023-02-13T11:05:01;101915.69;;;7.82;100.00
51439;BME280;38816;51.142;-0.974;2023-02-13T11:07:27;101907.56;;;7.90;100.00
51439;BME280;38816;51.142;-0.974;2023-02-13T11:09:59;101901.94;;;7.97;100.00
51439;BME280;38816;51.142;-0.974;2023-02-13T11:12:31;101910.78;;;8.18;100.00
51439;BME280;38816;51.142;-0.974;2023-02-13T11:15:02;101911.47;;;8.47;100.00
51439;BME280;38816;51.142;-0.974;2023-02-13T11:17:30;101903.63;;;8.78;100.00
51439;BME280;38816;51.142;-0.974;2023-02-13T11:19:59;101898.47;;;8.94;100.00
51439;BME280;38816;51.142;-0.974;2023-02-13T11:22:32;101905.81;;;9.04;100.00
51439;BME280;38816;51.142;-0.974;2023-02-13T11:25:01;101899.03;;;8.71;100.00
51439;BME280;38816;51.142;-0.974;2023-02-13T11:27:33;101912.75;;;8.39;100.00
51439;BME280;38816;51.142;-0.974;2023-02-13T11:30:04;101909.09;;;8.19;100.00
51439;BME280;38816;51.142;-0.974;2023-02-13T11:32:32;101909.19;;;8.04;100.00
51439;BME280;38816;51.142;-0.974;2023-02-13T11:35:20;101898.75;;;8.01;100.00
51439;BME280;38816;51.142;-0.974;2023-02-13T11:40:49;101909.34;;;8.23;100.00
51439;BME280;38816;51.142;-0.974;2023-02-13T11:46:24;101891.50;;;8.25;100.00
51439;BME280;38816;51.142;-0.974;2023-02-13T11:49:06;101890.97;;;8.47;100.00
51439;BME280;38816;51.142;-0.974;2023-02-13T11:51:39;101883.03;;;8.93;100.00
51439;BME280;38816;51.142;-0.974;2023-02-13T11:54:06;101874.31;;;9.25;100.00
51439;BME280;38816;51.142;-0.974;2023-02-13T11:56:53;101873.72;;;9.48;100.00
51439;BME280;38816;51.142;-0.974;2023-02-13T11:59:24;101874.50;;;9.65;100.00
51439;BME280;38816;51.142;-0.974;2023-02-13T12:07:39;101873.44;;;9.79;100.00
51439;BME280;38816;51.142;-0.974;2023-02-13T12:10:26;101866.56;;;9.78;100.00
51439;BME280;38816;51.142;-0.974;2023-02-13T12:12:58;101857.69;;;9.72;100.00
51439;BME280;38816;51.142;-0.974;2023-02-13T12:15:29;101854.38;;;9.74;100.00
51439;BME280;38816;51.142;-0.974;2023-02-13T12:18:03;101855.31;;;9.76;100.00
51439;BME280;38816;51.142;-0.974;2023-02-13T12:39:34;101824.25;;;9.15;100.00
51439;BME280;38816;51.142;-0.974;2023-02-13T12:51:22;101821.09;;;9.21;100.00
51439;BME280;38816;51.142;-0.974;2023-02-13T13:00:01;101792.00;;;9.20;100.00
51439;BME280;38816;51.142;-0.974;2023-02-13T13:02:58;101802.84;;;9.32;100.00
51439;BME280;38816;51.142;-0.974;2023-02-13T13:13:46;101797.75;;;9.52;100.00
51439;BME280;38816;51.142;-0.974;2023-02-13T13:16:24;101791.13;;;9.57;100.00
51439;BME280;38816;51.142;-0.974;2023-02-13T13:21:56;101779.22;;;9.59;100.00
51439;BME280;38816;51.142;-0.974;2023-02-13T13:27:16;101784.91;;;9.71;100.00
51439;BME280;38816;51.142;-0.974;2023-02-13T13:29:45;101777.09;;;9.68;100.00
51439;BME280;38816;51.142;-0.974;2023-02-13T13:32:17;101773.72;;;9.69;100.00
51439;BME280;38816;51.142;-0.974;2023-02-13T13:34:45;101772.38;;;9.77;100.00
51439;BME280;38816;51.142;-0.974;2023-02-13T13:39:48;101775.66;;;9.94;100.00
51439;BME280;38816;51.142;-0.974;2023-02-13T13:45:11;101768.53;;;10.08;100.00
51439;BME280;38816;51.142;-0.974;2023-02-13T13:50:41;101762.16;;;10.19;100.00
51439;BME280;38816;51.142;-0.974;2023-02-13T13:53:15;101760.69;;;10.24;100.00
51439;BME280;38816;51.142;-0.974;2023-02-13T13:58:36;101757.59;;;10.31;100.00
51439;BME280;38816;51.142;-0.974;2023-02-13T14:01:22;101759.59;;;10.38;100.00
51439;BME280;38816;51.142;-0.974;2023-02-13T14:03:58;101748.47;;;10.39;100.00
51439;BME280;38816;51.142;-0.974;2023-02-13T14:09:41;101756.19;;;10.60;98.52
51439;BME280;38816;51.142;-0.974;2023-02-13T14:14:56;101744.53;;;10.69;97.09
51439;BME280;38816;51.142;-0.974;2023-02-13T14:22:46;101729.22;;;10.72;96.32
51439;BME280;38816;51.142;-0.974;2023-02-13T14:25:27;101734.59;;;10.78;95.86
51439;BME280;38816;51.142;-0.974;2023-02-13T14:28:03;101733.66;;;10.76;96.04
51439;BME280;38816;51.142;-0.974;2023-02-13T14:30:37;101732.00;;;10.76;96.54
51439;BME280;38816;51.142;-0.974;2023-02-13T14:33:21;101719.91;;;10.75;95.74
51439;BME280;38816;51.142;-0.974;2023-02-13T14:35:59;101726.19;;;10.82;94.25
51439;BME280;38816;51.142;-0.974;2023-02-13T14:38:26;101718.41;;;10.80;93.56
51439;BME280;38816;51.142;-0.974;2023-02-13T14:40:52;101719.41;;;10.84;90.80
51439;BME280;38816;51.142;-0.974;2023-02-13T14:44:03;101727.28;;;10.88;88.69
51439;BME280;38816;51.142;-0.974;2023-02-13T14:46:21;101724.72;;;10.88;86.40
51439;BME280;38816;51.142;-0.974;2023-02-13T14:48:56;101718.53;;;10.83;85.60
51439;BME280;38816;51.142;-0.974;2023-02-13T14:51:31;101722.66;;;10.80;84.89
51439;BME280;38816;51.142;-0.974;2023-02-13T14:54:02;101714.69;;;10.72;84.66
51439;BME280;38816;51.142;-0.974;2023-02-13T14:56:29;101704.13;;;10.66;84.24
51439;BME280;38816;51.142;-0.974;2023-02-13T14:59:17;101714.41;;;10.66;84.47
51439;BME280;38816;51.142;-0.974;2023-02-13T15:02:01;101706.22;;;10.54;84.06
51439;BME280;38816;51.142;-0.974;2023-02-13T15:04:39;101703.41;;;10.48;84.57
51439;BME280;38816;51.142;-0.974;2023-02-13T15:07:13;101718.09;;;10.50;85.11
51439;BME280;38816;51.142;-0.974;2023-02-13T15:09:40;101712.81;;;10.47;85.32
51439;BME280;38816;51.142;-0.974;2023-02-13T15:12:26;101710.88;;;10.42;85.28
51439;BME280;38816;51.142;-0.974;2023-02-13T15:14:52;101704.41;;;10.30;85.33
51439;BME280;38816;51.142;-0.974;2023-02-13T15:17:26;101705.09;;;10.26;85.70
51439;BME280;38816;51.142;-0.974;2023-02-13T15:19:57;101705.50;;;10.16;86.42